This is the latest recevied weather packets stored in our database for station/object WC4PEM-6. If no packets are shown the sender has not sent any weather packets the latest 10 day(s).
| Time | Temp. | Humidity | Pressure | Rain* | Wind** | Luminosity | Snow |
|---|---|---|---|---|---|---|---|
| 1777756513 | 20.56° C | 90% | 1010.5 hPa | 0 mm | - | - | - |
| 1777756213 | 20.56° C | 90% | 1010.5 hPa | 0 mm | - | - | - |
| 1777756001 | 20.56° C | 89% | 1010.8 hPa | 0 mm | - | - | - |
| 1777755913 | 20.56° C | 89% | 1010.8 hPa | 0 mm | - | - | - |
| 1777755706 | 20.56° C | 89% | 1010.3 hPa | 0 mm | - | - | - |
| 1777755613 | 20.56° C | 89% | 1010.3 hPa | 0 mm | - | - | - |
| 1777755402 | 21.11° C | 88% | 1010.3 hPa | 0 mm | - | - | - |
| 1777755313 | 21.11° C | 88% | 1010.3 hPa | 0 mm | - | - | - |
| 1777755013 | 21.11° C | 87% | 1010.2 hPa | 0 mm | - | - | - |
| 1777754799 | 21.11° C | 86% | 1010.2 hPa | 0 mm | - | - | - |
| 1777754713 | 21.11° C | 86% | 1010.2 hPa | 0 mm | - | - | - |
| 1777754413 | 21.11° C | 85% | 1010.1 hPa | 0 mm | - | - | - |
| 1777754305 | 21.11° C | 85% | 1010.6 hPa | 0 mm | - | - | - |
| 1777754113 | 21.11° C | 85% | 1010.6 hPa | 0 mm | - | - | - |
| 1777753813 | 21.11° C | 84% | 1010.5 hPa | 0 mm | - | - | - |
| 1777753513 | 21.67° C | 84% | 1010.6 hPa | 0 mm | - | - | - |
| 1777753213 | 21.67° C | 83% | 1010.9 hPa | 0 mm | - | - | - |
| 1777752913 | 22.22° C | 82% | 1011 hPa | 0 mm | - | - | - |
| 1777752613 | 22.78° C | 80% | 1011.3 hPa | 0 mm | - | - | - |
| 1777752500 | 23.89° C | 76% | 1011.4 hPa | 0 mm | - | - | - |
| 1777752313 | 23.89° C | 76% | 1011.4 hPa | 0 mm | - | - | - |
| 1777752013 | 25.56° C | 71% | 1011.3 hPa | 0 mm | - | - | - |
| 1777751942 | 27.22° C | 72% | 1011.3 hPa | 0 mm | - | - | - |
| 1777751884 | 27.22° C | 72% | 1011.3 hPa | 0 mm | - | - | - |
| 1777751719 | 27.22° C | 75% | 1010.6 hPa | 0 mm | - | - | - |
* Rain latest hour (hover to see other rain measurements)
** Current wind speed in m/s (hover to see current wind gust speed)